sensor_id;sensor_type;location;lat;lon;timestamp;P1;durP1;ratioP1;P2;durP2;ratioP2
18100;SDS011;9177;49.156;8.142;2022-07-29T00:00:46;1.40;;;1.30;;
18100;SDS011;9177;49.156;8.142;2022-07-29T00:03:13;1.42;;;1.33;;
18100;SDS011;9177;49.156;8.142;2022-07-29T00:05:40;1.30;;;1.20;;
18100;SDS011;9177;49.156;8.142;2022-07-29T00:08:08;1.40;;;1.30;;
18100;SDS011;9177;49.156;8.142;2022-07-29T00:10:35;1.50;;;1.27;;
18100;SDS011;9177;49.156;8.142;2022-07-29T00:13:03;1.85;;;1.33;;
18100;SDS011;9177;49.156;8.142;2022-07-29T00:15:36;1.42;;;1.33;;
18100;SDS011;9177;49.156;8.142;2022-07-29T00:18:05;1.95;;;1.42;;
18100;SDS011;9177;49.156;8.142;2022-07-29T00:20:32;1.55;;;1.40;;
18100;SDS011;9177;49.156;8.142;2022-07-29T00:22:59;1.52;;;1.42;;
18100;SDS011;9177;49.156;8.142;2022-07-29T00:25:26;1.30;;;1.20;;
18100;SDS011;9177;49.156;8.142;2022-07-29T00:27:56;1.73;;;1.63;;
18100;SDS011;9177;49.156;8.142;2022-07-29T00:30:24;1.40;;;1.30;;
18100;SDS011;9177;49.156;8.142;2022-07-29T00:32:52;1.30;;;1.20;;
18100;SDS011;9177;49.156;8.142;2022-07-29T00:35:19;1.60;;;1.50;;
18100;SDS011;9177;49.156;8.142;2022-07-29T00:38:03;1.50;;;1.40;;
18100;SDS011;9177;49.156;8.142;2022-07-29T00:40:30;2.42;;;1.70;;
18100;SDS011;9177;49.156;8.142;2022-07-29T00:42:57;1.73;;;1.50;;
18100;SDS011;9177;49.156;8.142;2022-07-29T00:45:25;1.63;;;1.40;;
18100;SDS011;9177;49.156;8.142;2022-07-29T00:47:52;1.50;;;1.40;;
18100;SDS011;9177;49.156;8.142;2022-07-29T00:50:19;1.48;;;1.38;;
18100;SDS011;9177;49.156;8.142;2022-07-29T00:52:46;1.55;;;1.20;;
18100;SDS011;9177;49.156;8.142;2022-07-29T00:55:16;1.48;;;1.38;;
18100;SDS011;9177;49.156;8.142;2022-07-29T00:57:44;1.40;;;1.30;;
18100;SDS011;9177;49.156;8.142;2022-07-29T01:00:12;1.50;;;1.40;;
18100;SDS011;9177;49.156;8.142;2022-07-29T01:02:43;1.60;;;1.50;;
18100;SDS011;9177;49.156;8.142;2022-07-29T01:05:13;1.52;;;1.30;;
18100;SDS011;9177;49.156;8.142;2022-07-29T01:07:42;1.27;;;1.20;;
18100;SDS011;9177;49.156;8.142;2022-07-29T01:10:10;1.70;;;1.50;;
18100;SDS011;9177;49.156;8.142;2022-07-29T01:12:39;1.42;;;1.33;;
18100;SDS011;9177;49.156;8.142;2022-07-29T01:15:07;1.52;;;1.42;;
18100;SDS011;9177;49.156;8.142;2022-07-29T01:17:36;2.28;;;1.52;;
18100;SDS011;9177;49.156;8.142;2022-07-29T01:20:10;1.50;;;1.40;;
18100;SDS011;9177;49.156;8.142;2022-07-29T01:22:49;1.60;;;1.50;;
18100;SDS011;9177;49.156;8.142;2022-07-29T01:25:45;1.40;;;1.30;;
18100;SDS011;9177;49.156;8.142;2022-07-29T01:28:33;1.55;;;1.45;;
18100;SDS011;9177;49.156;8.142;2022-07-29T01:31:25;1.50;;;1.40;;
18100;SDS011;9177;49.156;8.142;2022-07-29T01:34:01;1.75;;;1.40;;
18100;SDS011;9177;49.156;8.142;2022-07-29T01:36:35;1.50;;;1.40;;
18100;SDS011;9177;49.156;8.142;2022-07-29T01:39:08;2.33;;;1.40;;
18100;SDS011;9177;49.156;8.142;2022-07-29T01:41:38;1.70;;;1.60;;
18100;SDS011;9177;49.156;8.142;2022-07-29T01:44:15;1.55;;;1.45;;
18100;SDS011;9177;49.156;8.142;2022-07-29T01:46:47;1.50;;;1.40;;
18100;SDS011;9177;49.156;8.142;2022-07-29T01:49:20;1.38;;;1.27;;
18100;SDS011;9177;49.156;8.142;2022-07-29T01:51:51;1.55;;;1.30;;
18100;SDS011;9177;49.156;8.142;2022-07-29T01:54:25;1.60;;;1.50;;
18100;SDS011;9177;49.156;8.142;2022-07-29T01:56:56;1.35;;;1.25;;
18100;SDS011;9177;49.156;8.142;2022-07-29T01:59:27;1.30;;;1.10;;
18100;SDS011;9177;49.156;8.142;2022-07-29T02:01:57;1.48;;;1.38;;
18100;SDS011;9177;49.156;8.142;2022-07-29T02:04:24;1.17;;;1.08;;
18100;SDS011;9177;49.156;8.142;2022-07-29T02:06:53;1.50;;;1.40;;
18100;SDS011;9177;49.156;8.142;2022-07-29T02:09:23;1.40;;;1.30;;
18100;SDS011;9177;49.156;8.142;2022-07-29T02:11:52;1.33;;;1.23;;
18100;SDS011;9177;49.156;8.142;2022-07-29T02:14:22;1.65;;;1.55;;
18100;SDS011;9177;49.156;8.142;2022-07-29T02:16:51;1.40;;;1.30;;
18100;SDS011;9177;49.156;8.142;2022-07-29T02:19:21;1.17;;;1.17;;
18100;SDS011;9177;49.156;8.142;2022-07-29T02:21:51;1.40;;;1.30;;
18100;SDS011;9177;49.156;8.142;2022-07-29T02:24:21;1.40;;;1.30;;
18100;SDS011;9177;49.156;8.142;2022-07-29T02:26:50;1.48;;;1.38;;
18100;SDS011;9177;49.156;8.142;2022-07-29T02:29:19;1.40;;;1.30;;
18100;SDS011;9177;49.156;8.142;2022-07-29T02:31:48;1.88;;;1.40;;
18100;SDS011;9177;49.156;8.142;2022-07-29T02:34:19;1.55;;;1.45;;
18100;SDS011;9177;49.156;8.142;2022-07-29T02:36:47;1.30;;;1.20;;
18100;SDS011;9177;49.156;8.142;2022-07-29T02:39:16;1.95;;;1.50;;
18100;SDS011;9177;49.156;8.142;2022-07-29T02:41:44;1.50;;;1.40;;
18100;SDS011;9177;49.156;8.142;2022-07-29T02:44:14;1.38;;;1.27;;
18100;SDS011;9177;49.156;8.142;2022-07-29T02:46:44;1.75;;;1.50;;
18100;SDS011;9177;49.156;8.142;2022-07-29T02:49:18;1.63;;;1.52;;
18100;SDS011;9177;49.156;8.142;2022-07-29T02:51:53;1.95;;;1.40;;
18100;SDS011;9177;49.156;8.142;2022-07-29T02:54:24;1.77;;;1.40;;
18100;SDS011;9177;49.156;8.142;2022-07-29T02:56:57;1.90;;;1.50;;
18100;SDS011;9177;49.156;8.142;2022-07-29T02:59:27;1.65;;;1.50;;
18100;SDS011;9177;49.156;8.142;2022-07-29T03:01:57;1.67;;;1.58;;
18100;SDS011;9177;49.156;8.142;2022-07-29T03:04:27;1.63;;;1.40;;
18100;SDS011;9177;49.156;8.142;2022-07-29T03:06:58;1.48;;;1.38;;
18100;SDS011;9177;49.156;8.142;2022-07-29T03:09:26;1.50;;;1.40;;
18100;SDS011;9177;49.156;8.142;2022-07-29T03:11:55;2.17;;;1.50;;
18100;SDS011;9177;49.156;8.142;2022-07-29T03:14:23;1.40;;;1.30;;
18100;SDS011;9177;49.156;8.142;2022-07-29T03:16:50;1.67;;;1.58;;
18100;SDS011;9177;49.156;8.142;2022-07-29T03:19:18;2.42;;;1.65;;
18100;SDS011;9177;49.156;8.142;2022-07-29T03:21:47;1.40;;;1.30;;
18100;SDS011;9177;49.156;8.142;2022-07-29T03:24:24;1.40;;;1.30;;
18100;SDS011;9177;49.156;8.142;2022-07-29T03:26:55;1.40;;;1.30;;
18100;SDS011;9177;49.156;8.142;2022-07-29T03:29:23;1.13;;;1.13;;
18100;SDS011;9177;49.156;8.142;2022-07-29T03:31:51;1.40;;;1.30;;
18100;SDS011;9177;49.156;8.142;2022-07-29T03:34:19;1.30;;;1.20;;
18100;SDS011;9177;49.156;8.142;2022-07-29T03:36:48;1.35;;;1.25;;
18100;SDS011;9177;49.156;8.142;2022-07-29T03:39:16;1.35;;;1.25;;
18100;SDS011;9177;49.156;8.142;2022-07-29T03:41:47;1.55;;;1.30;;
18100;SDS011;9177;49.156;8.142;2022-07-29T03:44:16;1.40;;;1.30;;
18100;SDS011;9177;49.156;8.142;2022-07-29T03:46:44;1.40;;;1.30;;
18100;SDS011;9177;49.156;8.142;2022-07-29T03:49:14;1.48;;;1.38;;
18100;SDS011;9177;49.156;8.142;2022-07-29T03:51:44;1.30;;;1.20;;
18100;SDS011;9177;49.156;8.142;2022-07-29T03:54:13;1.33;;;1.23;;
18100;SDS011;9177;49.156;8.142;2022-07-29T03:56:41;1.35;;;1.25;;
18100;SDS011;9177;49.156;8.142;2022-07-29T03:59:12;1.52;;;1.23;;
18100;SDS011;9177;49.156;8.142;2022-07-29T04:01:41;1.10;;;1.00;;
18100;SDS011;9177;49.156;8.142;2022-07-29T04:04:08;1.38;;;1.27;;
18100;SDS011;9177;49.156;8.142;2022-07-29T04:06:39;1.52;;;1.42;;
18100;SDS011;9177;49.156;8.142;2022-07-29T04:09:06;1.48;;;1.30;;
18100;SDS011;9177;49.156;8.142;2022-07-29T04:11:39;1.35;;;1.25;;
18100;SDS011;9177;49.156;8.142;2022-07-29T04:14:06;1.50;;;1.40;;
18100;SDS011;9177;49.156;8.142;2022-07-29T04:16:33;1.50;;;1.40;;
18100;SDS011;9177;49.156;8.142;2022-07-29T04:19:00;2.05;;;1.50;;
18100;SDS011;9177;49.156;8.142;2022-07-29T04:21:27;1.50;;;1.40;;
18100;SDS011;9177;49.156;8.142;2022-07-29T04:23:54;1.50;;;1.40;;
18100;SDS011;9177;49.156;8.142;2022-07-29T04:26:21;1.20;;;1.10;;
18100;SDS011;9177;49.156;8.142;2022-07-29T04:28:49;1.63;;;1.52;;
18100;SDS011;9177;49.156;8.142;2022-07-29T04:31:16;1.92;;;1.27;;
18100;SDS011;9177;49.156;8.142;2022-07-29T04:33:43;1.40;;;1.30;;
18100;SDS011;9177;49.156;8.142;2022-07-29T04:36:10;1.00;;;1.00;;
18100;SDS011;9177;49.156;8.142;2022-07-29T04:38:37;1.42;;;1.20;;
18100;SDS011;9177;49.156;8.142;2022-07-29T04:41:04;1.85;;;1.40;;
18100;SDS011;9177;49.156;8.142;2022-07-29T04:43:32;1.30;;;1.20;;
18100;SDS011;9177;49.156;8.142;2022-07-29T04:46:00;1.50;;;1.40;;
18100;SDS011;9177;49.156;8.142;2022-07-29T04:48:29;1.55;;;1.40;;
18100;SDS011;9177;49.156;8.142;2022-07-29T04:50:57;1.48;;;1.38;;
18100;SDS011;9177;49.156;8.142;2022-07-29T04:53:24;1.52;;;1.42;;
18100;SDS011;9177;49.156;8.142;2022-07-29T04:55:51;1.15;;;1.13;;
18100;SDS011;9177;49.156;8.142;2022-07-29T04:58:22;1.20;;;1.10;;
18100;SDS011;9177;49.156;8.142;2022-07-29T05:00:49;1.52;;;1.40;;
18100;SDS011;9177;49.156;8.142;2022-07-29T05:03:17;1.63;;;1.52;;
18100;SDS011;9177;49.156;8.142;2022-07-29T05:05:45;1.45;;;1.35;;
18100;SDS011;9177;49.156;8.142;2022-07-29T05:08:12;1.17;;;1.08;;
18100;SDS011;9177;49.156;8.142;2022-07-29T05:10:39;1.25;;;1.10;;
18100;SDS011;9177;49.156;8.142;2022-07-29T05:13:06;1.40;;;1.30;;
18100;SDS011;9177;49.156;8.142;2022-07-29T05:15:33;1.35;;;1.25;;
18100;SDS011;9177;49.156;8.142;2022-07-29T05:18:00;2.05;;;1.60;;
18100;SDS011;9177;49.156;8.142;2022-07-29T05:20:29;1.70;;;1.60;;
18100;SDS011;9177;49.156;8.142;2022-07-29T05:22:56;2.28;;;1.55;;
18100;SDS011;9177;49.156;8.142;2022-07-29T05:25:24;1.70;;;1.60;;
18100;SDS011;9177;49.156;8.142;2022-07-29T05:27:51;1.85;;;1.58;;
18100;SDS011;9177;49.156;8.142;2022-07-29T05:30:19;1.40;;;1.30;;
18100;SDS011;9177;49.156;8.142;2022-07-29T05:32:47;1.90;;;1.55;;
18100;SDS011;9177;49.156;8.142;2022-07-29T05:35:14;2.33;;;1.77;;
18100;SDS011;9177;49.156;8.142;2022-07-29T05:37:43;2.13;;;1.80;;
18100;SDS011;9177;49.156;8.142;2022-07-29T05:40:11;4.68;;;2.95;;
18100;SDS011;9177;49.156;8.142;2022-07-29T05:42:38;2.15;;;1.85;;
18100;SDS011;9177;49.156;8.142;2022-07-29T05:45:05;2.00;;;1.70;;
18100;SDS011;9177;49.156;8.142;2022-07-29T05:47:34;3.03;;;1.80;;
18100;SDS011;9177;49.156;8.142;2022-07-29T05:50:00;1.52;;;1.38;;
18100;SDS011;9177;49.156;8.142;2022-07-29T05:52:28;2.00;;;1.63;;
18100;SDS011;9177;49.156;8.142;2022-07-29T05:54:56;2.75;;;1.75;;
18100;SDS011;9177;49.156;8.142;2022-07-29T05:57:23;1.98;;;1.83;;
18100;SDS011;9177;49.156;8.142;2022-07-29T05:59:50;1.90;;;1.58;;
18100;SDS011;9177;49.156;8.142;2022-07-29T06:02:17;1.85;;;1.40;;
18100;SDS011;9177;49.156;8.142;2022-07-29T06:04:44;1.58;;;1.48;;
18100;SDS011;9177;49.156;8.142;2022-07-29T06:07:11;2.30;;;1.60;;
18100;SDS011;9177;49.156;8.142;2022-07-29T06:09:38;1.25;;;1.15;;
18100;SDS011;9177;49.156;8.142;2022-07-29T06:12:06;1.60;;;1.50;;
18100;SDS011;9177;49.156;8.142;2022-07-29T06:14:33;1.67;;;1.58;;
18100;SDS011;9177;49.156;8.142;2022-07-29T06:17:01;1.85;;;1.40;;
18100;SDS011;9177;49.156;8.142;2022-07-29T06:19:27;1.70;;;1.60;;
18100;SDS011;9177;49.156;8.142;2022-07-29T06:21:54;1.67;;;1.58;;
18100;SDS011;9177;49.156;8.142;2022-07-29T06:24:21;1.70;;;1.60;;
18100;SDS011;9177;49.156;8.142;2022-07-29T06:26:48;1.80;;;1.70;;
18100;SDS011;9177;49.156;8.142;2022-07-29T06:29:16;2.17;;;1.98;;
18100;SDS011;9177;49.156;8.142;2022-07-29T06:31:46;1.60;;;1.50;;
18100;SDS011;9177;49.156;8.142;2022-07-29T06:34:13;1.60;;;1.50;;
18100;SDS011;9177;49.156;8.142;2022-07-29T06:36:41;1.98;;;1.75;;
18100;SDS011;9177;49.156;8.142;2022-07-29T06:39:08;2.00;;;1.90;;
18100;SDS011;9177;49.156;8.142;2022-07-29T06:41:35;2.00;;;1.90;;
18100;SDS011;9177;49.156;8.142;2022-07-29T06:44:02;2.13;;;1.92;;
18100;SDS011;9177;49.156;8.142;2022-07-29T06:46:31;2.33;;;1.98;;
18100;SDS011;9177;49.156;8.142;2022-07-29T06:48:58;1.50;;;1.40;;
18100;SDS011;9177;49.156;8.142;2022-07-29T06:51:26;2.22;;;2.03;;
18100;SDS011;9177;49.156;8.142;2022-07-29T06:53:53;1.65;;;1.55;;
18100;SDS011;9177;49.156;8.142;2022-07-29T06:56:20;1.70;;;1.60;;
18100;SDS011;9177;49.156;8.142;2022-07-29T06:58:47;1.63;;;1.52;;
18100;SDS011;9177;49.156;8.142;2022-07-29T07:01:17;1.70;;;1.60;;
18100;SDS011;9177;49.156;8.142;2022-07-29T07:03:46;1.80;;;1.70;;
18100;SDS011;9177;49.156;8.142;2022-07-29T07:06:13;1.80;;;1.70;;
18100;SDS011;9177;49.156;8.142;2022-07-29T07:08:41;1.65;;;1.55;;
18100;SDS011;9177;49.156;8.142;2022-07-29T07:11:08;1.63;;;1.48;;
18100;SDS011;9177;49.156;8.142;2022-07-29T07:13:35;1.98;;;1.77;;
18100;SDS011;9177;49.156;8.142;2022-07-29T07:16:02;1.58;;;1.48;;
18100;SDS011;9177;49.156;8.142;2022-07-29T07:18:29;1.70;;;1.55;;
18100;SDS011;9177;49.156;8.142;2022-07-29T07:20:58;1.70;;;1.35;;
18100;SDS011;9177;49.156;8.142;2022-07-29T07:23:28;2.22;;;1.70;;
18100;SDS011;9177;49.156;8.142;2022-07-29T07:25:55;1.80;;;1.60;;
18100;SDS011;9177;49.156;8.142;2022-07-29T07:28:22;1.50;;;1.40;;
18100;SDS011;9177;49.156;8.142;2022-07-29T07:30:49;2.30;;;1.55;;
18100;SDS011;9177;49.156;8.142;2022-07-29T07:33:16;1.85;;;1.70;;
18100;SDS011;9177;49.156;8.142;2022-07-29T07:35:44;2.28;;;2.08;;
18100;SDS011;9177;49.156;8.142;2022-07-29T07:38:12;1.90;;;1.80;;
18100;SDS011;9177;49.156;8.142;2022-07-29T07:40:39;1.75;;;1.65;;
18100;SDS011;9177;49.156;8.142;2022-07-29T07:43:06;1.80;;;1.70;;
18100;SDS011;9177;49.156;8.142;2022-07-29T07:45:33;1.90;;;1.70;;
18100;SDS011;9177;49.156;8.142;2022-07-29T07:48:02;2.15;;;1.98;;
18100;SDS011;9177;49.156;8.142;2022-07-29T07:50:29;1.90;;;1.80;;
18100;SDS011;9177;49.156;8.142;2022-07-29T07:52:56;2.75;;;1.80;;
18100;SDS011;9177;49.156;8.142;2022-07-29T07:55:25;2.35;;;1.70;;
18100;SDS011;9177;49.156;8.142;2022-07-29T07:57:52;1.70;;;1.60;;
18100;SDS011;9177;49.156;8.142;2022-07-29T08:00:19;1.83;;;1.73;;
18100;SDS011;9177;49.156;8.142;2022-07-29T08:02:47;1.70;;;1.60;;
18100;SDS011;9177;49.156;8.142;2022-07-29T08:05:15;2.10;;;1.90;;
18100;SDS011;9177;49.156;8.142;2022-07-29T08:07:43;2.03;;;1.88;;
18100;SDS011;9177;49.156;8.142;2022-07-29T08:10:11;1.88;;;1.77;;
18100;SDS011;9177;49.156;8.142;2022-07-29T08:12:39;2.38;;;1.95;;
18100;SDS011;9177;49.156;8.142;2022-07-29T08:15:06;1.88;;;1.77;;
18100;SDS011;9177;49.156;8.142;2022-07-29T08:17:35;1.90;;;1.80;;
18100;SDS011;9177;49.156;8.142;2022-07-29T08:20:02;1.60;;;1.50;;
18100;SDS011;9177;49.156;8.142;2022-07-29T08:22:32;1.92;;;1.77;;
18100;SDS011;9177;49.156;8.142;2022-07-29T08:24:59;4.90;;;1.80;;
18100;SDS011;9177;49.156;8.142;2022-07-29T08:27:26;3.42;;;1.92;;
18100;SDS011;9177;49.156;8.142;2022-07-29T08:29:57;3.13;;;1.65;;
18100;SDS011;9177;49.156;8.142;2022-07-29T08:32:23;6.55;;;1.83;;
18100;SDS011;9177;49.156;8.142;2022-07-29T08:34:50;2.20;;;1.77;;
18100;SDS011;9177;49.156;8.142;2022-07-29T08:37:17;4.00;;;1.67;;
18100;SDS011;9177;49.156;8.142;2022-07-29T08:39:44;5.25;;;2.20;;
18100;SDS011;9177;49.156;8.142;2022-07-29T08:42:12;2.33;;;1.77;;
18100;SDS011;9177;49.156;8.142;2022-07-29T08:44:39;2.35;;;1.63;;
18100;SDS011;9177;49.156;8.142;2022-07-29T08:47:07;1.75;;;1.65;;
18100;SDS011;9177;49.156;8.142;2022-07-29T08:49:34;5.13;;;1.90;;
18100;SDS011;9177;49.156;8.142;2022-07-29T08:52:02;2.10;;;1.90;;
18100;SDS011;9177;49.156;8.142;2022-07-29T08:54:29;4.70;;;1.73;;
18100;SDS011;9177;49.156;8.142;2022-07-29T08:56:56;3.40;;;1.80;;
18100;SDS011;9177;49.156;8.142;2022-07-29T08:59:24;4.82;;;1.98;;
18100;SDS011;9177;49.156;8.142;2022-07-29T09:01:53;5.20;;;2.28;;
18100;SDS011;9177;49.156;8.142;2022-07-29T09:04:25;3.60;;;1.85;;
18100;SDS011;9177;49.156;8.142;2022-07-29T09:06:56;2.25;;;1.95;;
18100;SDS011;9177;49.156;8.142;2022-07-29T09:09:26;3.13;;;2.13;;
18100;SDS011;9177;49.156;8.142;2022-07-29T09:11:53;2.92;;;1.90;;
18100;SDS011;9177;49.156;8.142;2022-07-29T09:14:21;5.85;;;2.10;;
18100;SDS011;9177;49.156;8.142;2022-07-29T09:16:49;5.30;;;2.20;;
18100;SDS011;9177;49.156;8.142;2022-07-29T09:19:21;4.43;;;2.30;;
18100;SDS011;9177;49.156;8.142;2022-07-29T09:21:50;7.22;;;2.53;;
18100;SDS011;9177;49.156;8.142;2022-07-29T09:24:24;8.38;;;2.20;;
18100;SDS011;9177;49.156;8.142;2022-07-29T09:26:53;5.72;;;2.42;;
18100;SDS011;9177;49.156;8.142;2022-07-29T09:29:21;5.50;;;2.28;;
18100;SDS011;9177;49.156;8.142;2022-07-29T09:31:50;5.07;;;2.30;;
18100;SDS011;9177;49.156;8.142;2022-07-29T09:34:21;3.97;;;2.05;;
18100;SDS011;9177;49.156;8.142;2022-07-29T09:36:53;4.20;;;2.00;;
18100;SDS011;9177;49.156;8.142;2022-07-29T09:39:28;2.88;;;1.95;;
18100;SDS011;9177;49.156;8.142;2022-07-29T09:41:56;6.07;;;2.20;;
18100;SDS011;9177;49.156;8.142;2022-07-29T09:44:25;6.45;;;2.38;;
18100;SDS011;9177;49.156;8.142;2022-07-29T09:46:56;6.05;;;2.15;;
18100;SDS011;9177;49.156;8.142;2022-07-29T09:49:24;4.78;;;1.88;;
18100;SDS011;9177;49.156;8.142;2022-07-29T09:52:05;3.75;;;2.15;;
18100;SDS011;9177;49.156;8.142;2022-07-29T09:54:34;4.75;;;2.55;;
18100;SDS011;9177;49.156;8.142;2022-07-29T09:57:05;4.68;;;2.47;;
18100;SDS011;9177;49.156;8.142;2022-07-29T09:59:35;3.53;;;2.08;;
18100;SDS011;9177;49.156;8.142;2022-07-29T10:02:01;2.28;;;2.00;;
18100;SDS011;9177;49.156;8.142;2022-07-29T10:04:38;6.45;;;2.13;;
18100;SDS011;9177;49.156;8.142;2022-07-29T10:07:08;5.63;;;2.50;;
18100;SDS011;9177;49.156;8.142;2022-07-29T10:09:35;4.00;;;2.42;;
18100;SDS011;9177;49.156;8.142;2022-07-29T10:12:06;4.97;;;2.30;;
18100;SDS011;9177;49.156;8.142;2022-07-29T10:14:36;3.05;;;2.40;;
18100;SDS011;9177;49.156;8.142;2022-07-29T10:17:05;4.22;;;3.50;;
18100;SDS011;9177;49.156;8.142;2022-07-29T10:19:33;6.68;;;3.60;;
18100;SDS011;9177;49.156;8.142;2022-07-29T10:22:01;3.95;;;3.47;;
18100;SDS011;9177;49.156;8.142;2022-07-29T10:24:31;4.35;;;3.20;;
18100;SDS011;9177;49.156;8.142;2022-07-29T10:26:59;5.03;;;3.20;;
18100;SDS011;9177;49.156;8.142;2022-07-29T10:29:27;5.40;;;3.30;;
18100;SDS011;9177;49.156;8.142;2022-07-29T10:32:02;8.27;;;3.22;;
18100;SDS011;9177;49.156;8.142;2022-07-29T10:34:44;4.25;;;3.53;;
18100;SDS011;9177;49.156;8.142;2022-07-29T10:37:33;3.65;;;2.92;;
18100;SDS011;9177;49.156;8.142;2022-07-29T10:40:18;6.47;;;3.10;;
18100;SDS011;9177;49.156;8.142;2022-07-29T10:43:14;4.68;;;3.08;;
18100;SDS011;9177;49.156;8.142;2022-07-29T10:46:00;4.60;;;3.10;;
18100;SDS011;9177;49.156;8.142;2022-07-29T10:48:27;4.47;;;2.80;;
18100;SDS011;9177;49.156;8.142;2022-07-29T10:50:55;7.88;;;3.10;;
18100;SDS011;9177;49.156;8.142;2022-07-29T10:53:23;5.22;;;3.53;;
18100;SDS011;9177;49.156;8.142;2022-07-29T10:55:52;6.65;;;3.22;;
18100;SDS011;9177;49.156;8.142;2022-07-29T10:58:20;5.93;;;3.15;;
18100;SDS011;9177;49.156;8.142;2022-07-29T11:00:48;4.55;;;2.70;;
18100;SDS011;9177;49.156;8.142;2022-07-29T11:06:10;3.03;;;2.67;;
18100;SDS011;9177;49.156;8.142;2022-07-29T11:08:37;5.32;;;3.28;;
18100;SDS011;9177;49.156;8.142;2022-07-29T11:14:00;5.40;;;3.63;;
18100;SDS011;9177;49.156;8.142;2022-07-29T11:16:31;3.58;;;2.72;;
18100;SDS011;9177;49.156;8.142;2022-07-29T11:19:31;4.55;;;2.85;;
18100;SDS011;9177;49.156;8.142;2022-07-29T11:21:58;3.90;;;2.75;;
18100;SDS011;9177;49.156;8.142;2022-07-29T11:24:25;2.95;;;2.65;;
18100;SDS011;9177;49.156;8.142;2022-07-29T11:27:08;2.97;;;2.70;;
18100;SDS011;9177;49.156;8.142;2022-07-29T11:29:38;3.08;;;2.80;;
18100;SDS011;9177;49.156;8.142;2022-07-29T11:32:11;4.65;;;2.53;;
18100;SDS011;9177;49.156;8.142;2022-07-29T11:34:41;9.02;;;3.28;;
18100;SDS011;9177;49.156;8.142;2022-07-29T11:37:19;3.65;;;2.70;;
18100;SDS011;9177;49.156;8.142;2022-07-29T11:39:49;3.17;;;2.97;;
18100;SDS011;9177;49.156;8.142;2022-07-29T11:45:22;3.63;;;2.80;;
18100;SDS011;9177;49.156;8.142;2022-07-29T11:47:54;3.33;;;3.03;;
18100;SDS011;9177;49.156;8.142;2022-07-29T11:50:27;5.03;;;3.30;;
18100;SDS011;9177;49.156;8.142;2022-07-29T11:53:03;4.60;;;2.97;;
18100;SDS011;9177;49.156;8.142;2022-07-29T11:55:37;4.43;;;3.10;;
18100;SDS011;9177;49.156;8.142;2022-07-29T11:58:06;3.08;;;2.60;;
18100;SDS011;9177;49.156;8.142;2022-07-29T12:00:38;4.88;;;3.25;;
18100;SDS011;9177;49.156;8.142;2022-07-29T12:03:07;4.78;;;3.47;;
18100;SDS011;9177;49.156;8.142;2022-07-29T12:05:38;6.10;;;2.90;;
18100;SDS011;9177;49.156;8.142;2022-07-29T12:08:08;5.32;;;2.78;;
18100;SDS011;9177;49.156;8.142;2022-07-29T12:10:37;4.95;;;3.03;;
18100;SDS011;9177;49.156;8.142;2022-07-29T12:13:06;3.72;;;2.80;;
18100;SDS011;9177;49.156;8.142;2022-07-29T12:15:34;3.75;;;2.90;;
18100;SDS011;9177;49.156;8.142;2022-07-29T12:18:10;3.25;;;2.50;;
18100;SDS011;9177;49.156;8.142;2022-07-29T12:20:39;5.80;;;3.00;;
18100;SDS011;9177;49.156;8.142;2022-07-29T12:23:06;3.42;;;2.58;;
18100;SDS011;9177;49.156;8.142;2022-07-29T12:25:34;3.35;;;2.70;;
18100;SDS011;9177;49.156;8.142;2022-07-29T12:28:03;4.43;;;3.20;;
18100;SDS011;9177;49.156;8.142;2022-07-29T12:30:36;4.13;;;2.80;;
18100;SDS011;9177;49.156;8.142;2022-07-29T12:33:12;5.43;;;2.80;;
18100;SDS011;9177;49.156;8.142;2022-07-29T12:35:45;4.50;;;2.85;;
18100;SDS011;9177;49.156;8.142;2022-07-29T12:38:14;6.18;;;2.92;;
18100;SDS011;9177;49.156;8.142;2022-07-29T12:40:42;3.33;;;2.60;;
18100;SDS011;9177;49.156;8.142;2022-07-29T12:43:11;2.88;;;2.60;;
18100;SDS011;9177;49.156;8.142;2022-07-29T12:45:42;3.60;;;2.72;;
18100;SDS011;9177;49.156;8.142;2022-07-29T12:48:10;3.30;;;2.80;;
18100;SDS011;9177;49.156;8.142;2022-07-29T12:50:51;2.83;;;2.60;;
18100;SDS011;9177;49.156;8.142;2022-07-29T12:53:22;4.40;;;2.63;;
18100;SDS011;9177;49.156;8.142;2022-07-29T12:55:50;3.63;;;2.90;;
18100;SDS011;9177;49.156;8.142;2022-07-29T12:58:28;3.33;;;2.50;;
18100;SDS011;9177;49.156;8.142;2022-07-29T13:01:01;3.65;;;2.90;;
18100;SDS011;9177;49.156;8.142;2022-07-29T13:03:46;2.97;;;2.78;;
18100;SDS011;9177;49.156;8.142;2022-07-29T13:06:26;2.70;;;2.50;;
18100;SDS011;9177;49.156;8.142;2022-07-29T13:09:10;3.22;;;2.50;;
18100;SDS011;9177;49.156;8.142;2022-07-29T13:11:39;3.25;;;2.80;;
18100;SDS011;9177;49.156;8.142;2022-07-29T13:14:07;3.17;;;2.40;;
18100;SDS011;9177;49.156;8.142;2022-07-29T13:16:59;2.95;;;2.33;;
18100;SDS011;9177;49.156;8.142;2022-07-29T13:19:35;3.17;;;2.72;;
18100;SDS011;9177;49.156;8.142;2022-07-29T13:22:05;2.88;;;2.50;;
18100;SDS011;9177;49.156;8.142;2022-07-29T13:24:32;3.13;;;2.40;;
18100;SDS011;9177;49.156;8.142;2022-07-29T13:26:59;2.60;;;2.40;;
18100;SDS011;9177;49.156;8.142;2022-07-29T13:29:26;3.47;;;2.58;;
18100;SDS011;9177;49.156;8.142;2022-07-29T13:31:53;4.40;;;2.40;;
18100;SDS011;9177;49.156;8.142;2022-07-29T13:34:21;3.25;;;2.45;;
18100;SDS011;9177;49.156;8.142;2022-07-29T13:36:49;3.00;;;2.22;;
18100;SDS011;9177;49.156;8.142;2022-07-29T13:39:16;2.92;;;2.45;;
18100;SDS011;9177;49.156;8.142;2022-07-29T13:41:42;3.17;;;2.40;;
18100;SDS011;9177;49.156;8.142;2022-07-29T13:44:09;2.25;;;2.05;;
18100;SDS011;9177;49.156;8.142;2022-07-29T13:46:36;2.40;;;2.20;;
18100;SDS011;9177;49.156;8.142;2022-07-29T13:49:03;3.05;;;2.50;;
18100;SDS011;9177;49.156;8.142;2022-07-29T13:51:34;2.35;;;2.15;;
18100;SDS011;9177;49.156;8.142;2022-07-29T13:54:01;2.22;;;2.00;;
18100;SDS011;9177;49.156;8.142;2022-07-29T13:56:28;2.67;;;2.42;;
18100;SDS011;9177;49.156;8.142;2022-07-29T13:58:55;2.22;;;2.03;;
18100;SDS011;9177;49.156;8.142;2022-07-29T14:01:23;2.80;;;2.22;;
18100;SDS011;9177;49.156;8.142;2022-07-29T14:03:51;3.10;;;2.42;;
18100;SDS011;9177;49.156;8.142;2022-07-29T14:06:18;3.10;;;2.28;;
18100;SDS011;9177;49.156;8.142;2022-07-29T14:08:46;2.85;;;2.10;;
18100;SDS011;9177;49.156;8.142;2022-07-29T14:11:14;2.53;;;2.10;;
18100;SDS011;9177;49.156;8.142;2022-07-29T14:13:41;2.67;;;2.10;;
18100;SDS011;9177;49.156;8.142;2022-07-29T14:16:07;2.35;;;2.08;;
18100;SDS011;9177;49.156;8.142;2022-07-29T14:18:34;2.45;;;2.25;;
18100;SDS011;9177;49.156;8.142;2022-07-29T14:21:01;2.35;;;2.15;;
18100;SDS011;9177;49.156;8.142;2022-07-29T14:23:29;2.30;;;2.10;;
18100;SDS011;9177;49.156;8.142;2022-07-29T14:25:57;2.47;;;1.80;;
18100;SDS011;9177;49.156;8.142;2022-07-29T14:28:24;1.95;;;1.83;;
18100;SDS011;9177;49.156;8.142;2022-07-29T14:30:51;2.22;;;2.00;;
18100;SDS011;9177;49.156;8.142;2022-07-29T14:33:18;2.08;;;1.85;;
18100;SDS011;9177;49.156;8.142;2022-07-29T14:35:45;2.15;;;2.05;;
18100;SDS011;9177;49.156;8.142;2022-07-29T14:38:12;2.50;;;2.00;;
18100;SDS011;9177;49.156;8.142;2022-07-29T14:40:39;2.97;;;1.90;;
18100;SDS011;9177;49.156;8.142;2022-07-29T14:43:07;2.17;;;1.95;;
18100;SDS011;9177;49.156;8.142;2022-07-29T14:45:35;2.22;;;2.03;;
18100;SDS011;9177;49.156;8.142;2022-07-29T14:48:01;2.17;;;1.73;;
18100;SDS011;9177;49.156;8.142;2022-07-29T14:50:28;2.45;;;2.00;;
18100;SDS011;9177;49.156;8.142;2022-07-29T14:52:56;2.78;;;1.90;;
18100;SDS011;9177;49.156;8.142;2022-07-29T14:55:23;2.25;;;1.73;;
18100;SDS011;9177;49.156;8.142;2022-07-29T14:57:50;2.03;;;1.88;;
18100;SDS011;9177;49.156;8.142;2022-07-29T15:00:18;2.33;;;2.13;;
18100;SDS011;9177;49.156;8.142;2022-07-29T15:02:45;1.73;;;1.63;;
18100;SDS011;9177;49.156;8.142;2022-07-29T15:05:12;1.80;;;1.70;;
18100;SDS011;9177;49.156;8.142;2022-07-29T15:07:39;1.60;;;1.50;;
18100;SDS011;9177;49.156;8.142;2022-07-29T15:10:09;2.38;;;1.90;;
18100;SDS011;9177;49.156;8.142;2022-07-29T15:12:37;2.15;;;1.70;;
18100;SDS011;9177;49.156;8.142;2022-07-29T15:15:04;2.17;;;1.80;;
18100;SDS011;9177;49.156;8.142;2022-07-29T15:17:33;1.73;;;1.63;;
18100;SDS011;9177;49.156;8.142;2022-07-29T15:20:01;1.90;;;1.80;;
18100;SDS011;9177;49.156;8.142;2022-07-29T15:22:28;1.98;;;1.73;;